createdAt,value
2023-05-14T00:01:00.756Z,6.28
2023-05-14T00:03:27.222Z,6.70
2023-05-14T00:05:53.828Z,6.75
2023-05-14T00:08:20.268Z,6.63
2023-05-14T00:10:46.614Z,6.15
2023-05-14T00:13:12.963Z,6.95
2023-05-14T00:15:39.465Z,6.20
2023-05-14T00:18:05.865Z,6.20
2023-05-14T00:20:32.302Z,6.72
2023-05-14T00:22:58.687Z,6.00
2023-05-14T00:25:25.042Z,6.35
2023-05-14T00:27:51.403Z,6.80
2023-05-14T00:30:17.787Z,6.13
2023-05-14T00:32:44.178Z,6.90
2023-05-14T00:35:10.598Z,6.20
2023-05-14T00:37:37.045Z,5.80
2023-05-14T00:40:03.700Z,6.60
2023-05-14T00:42:30.040Z,7.10
2023-05-14T00:44:56.408Z,7.53
2023-05-14T00:47:22.929Z,6.63
2023-05-14T00:49:49.387Z,6.65
2023-05-14T00:52:16.426Z,6.93
2023-05-14T00:54:42.811Z,6.25
2023-05-14T00:57:09.192Z,5.70
2023-05-14T00:59:35.624Z,6.10
2023-05-14T01:02:01.996Z,6.95
2023-05-14T01:04:28.490Z,6.90
2023-05-14T01:07:01.187Z,6.15
2023-05-14T01:09:30.548Z,6.07
2023-05-14T01:12:02.814Z,6.63
2023-05-14T01:14:32.171Z,4.75
2023-05-14T01:16:59.462Z,6.67
2023-05-14T01:19:44.482Z,6.28
2023-05-14T01:22:11.389Z,6.72
2023-05-14T01:24:37.909Z,7.35
2023-05-14T01:27:10.138Z,6.03
2023-05-14T01:29:38.617Z,6.00
2023-05-14T01:32:06.471Z,6.40
2023-05-14T01:34:33.046Z,5.63
2023-05-14T01:36:59.933Z,7.20
2023-05-14T01:39:26.838Z,6.15
2023-05-14T01:41:54.247Z,6.70
2023-05-14T01:44:21.362Z,6.50
2023-05-14T01:46:47.747Z,6.70
2023-05-14T01:49:14.137Z,7.13
2023-05-14T01:51:40.504Z,7.07
2023-05-14T01:54:06.838Z,7.60
2023-05-14T01:56:33.219Z,6.60
2023-05-14T01:58:59.583Z,7.65
2023-05-14T02:01:25.967Z,6.90
2023-05-14T02:03:52.424Z,7.43
2023-05-14T02:06:18.987Z,7.13
2023-05-14T02:08:45.374Z,6.45
2023-05-14T02:11:11.888Z,6.90
2023-05-14T02:13:38.224Z,8.05
2023-05-14T02:16:04.897Z,7.43
2023-05-14T02:18:31.407Z,7.43
2023-05-14T02:20:57.769Z,7.78
2023-05-14T02:23:34.040Z,6.72
2023-05-14T02:26:04.654Z,6.22
2023-05-14T02:28:30.975Z,6.55
2023-05-14T02:31:00.182Z,4.70
2023-05-14T02:33:26.723Z,6.70
2023-05-14T02:35:53.142Z,6.82
2023-05-14T02:38:20.012Z,6.40
2023-05-14T02:40:46.385Z,7.32
2023-05-14T02:43:12.714Z,6.13
2023-05-14T02:45:39.069Z,7.43
2023-05-14T02:48:05.719Z,7.75
2023-05-14T02:50:32.125Z,7.43
2023-05-14T02:52:58.461Z,7.43
2023-05-14T02:55:24.791Z,7.20
2023-05-14T02:57:51.127Z,6.97
2023-05-14T03:00:17.585Z,7.60
2023-05-14T03:02:44.545Z,7.00
2023-05-14T03:05:11.799Z,7.78
2023-05-14T03:07:38.129Z,7.87
2023-05-14T03:10:04.835Z,7.78
2023-05-14T03:12:31.181Z,7.95
2023-05-14T03:14:57.575Z,9.43
2023-05-14T03:17:24.018Z,9.63
2023-05-14T03:19:50.416Z,9.30
2023-05-14T03:22:16.870Z,9.20
2023-05-14T03:24:43.247Z,8.80
2023-05-14T03:27:09.600Z,9.50
2023-05-14T03:29:35.962Z,9.88
2023-05-14T03:32:03.330Z,8.73
2023-05-14T03:34:29.689Z,10.35
2023-05-14T03:36:56.039Z,9.27
2023-05-14T03:39:22.412Z,8.60
2023-05-14T03:41:48.774Z,9.45
2023-05-14T03:44:15.130Z,9.23
2023-05-14T03:46:41.507Z,9.77
2023-05-14T03:49:07.942Z,10.30
2023-05-14T03:51:34.421Z,9.27
2023-05-14T03:54:01.536Z,9.23
2023-05-14T03:56:27.899Z,9.17
2023-05-14T03:58:54.217Z,10.02
2023-05-14T04:01:20.652Z,10.05
2023-05-14T04:03:47.709Z,8.02
2023-05-14T04:06:14.281Z,9.32
2023-05-14T04:08:40.674Z,8.87
2023-05-14T04:11:07.031Z,7.93
2023-05-14T04:13:33.399Z,8.90
2023-05-14T04:15:59.845Z,8.77
2023-05-14T04:18:26.317Z,8.85
2023-05-14T04:20:52.729Z,8.17
2023-05-14T04:23:19.188Z,9.60
2023-05-14T04:25:45.522Z,8.95
2023-05-14T04:28:11.858Z,9.25
2023-05-14T04:30:38.251Z,11.10
2023-05-14T04:33:04.649Z,10.50
2023-05-14T04:35:31.042Z,9.15
2023-05-14T04:37:57.480Z,8.57
2023-05-14T04:40:24.134Z,9.13
2023-05-14T04:42:50.795Z,9.35
2023-05-14T04:45:17.215Z,9.80
2023-05-14T04:47:43.678Z,9.07
2023-05-14T04:50:10.167Z,9.88
2023-05-14T04:52:36.605Z,8.70
2023-05-14T04:55:02.938Z,10.73
2023-05-14T04:57:29.269Z,10.17
2023-05-14T04:59:55.976Z,10.43
2023-05-14T05:02:22.316Z,9.57
2023-05-14T05:04:48.780Z,10.60
2023-05-14T05:07:15.281Z,10.13
2023-05-14T05:09:42.496Z,12.10
2023-05-14T05:12:09.041Z,10.23
2023-05-14T05:14:35.508Z,10.82
2023-05-14T05:17:01.876Z,9.60
2023-05-14T05:19:39.673Z,9.88
2023-05-14T05:22:10.021Z,10.67
2023-05-14T05:24:36.400Z,10.10
2023-05-14T05:27:02.774Z,9.93
2023-05-14T05:29:29.157Z,10.10
2023-05-14T05:31:55.644Z,8.95
2023-05-14T05:34:22.041Z,8.83
2023-05-14T05:36:48.454Z,9.52
2023-05-14T05:39:14.848Z,8.85
2023-05-14T05:41:41.224Z,9.07
2023-05-14T05:44:07.616Z,9.13
2023-05-14T05:46:33.969Z,9.07
2023-05-14T05:49:00.345Z,8.15
2023-05-14T05:51:26.884Z,9.88
2023-05-14T05:53:53.219Z,7.97
2023-05-14T05:56:19.554Z,9.93
2023-05-14T05:58:45.991Z,8.17
2023-05-14T06:01:12.343Z,9.82
2023-05-14T06:03:38.834Z,8.85
2023-05-14T06:06:05.360Z,9.07
2023-05-14T06:08:31.844Z,7.43
2023-05-14T06:10:58.198Z,8.67
2023-05-14T06:13:24.610Z,8.73
2023-05-14T06:15:50.964Z,8.60
2023-05-14T06:18:17.309Z,8.13
2023-05-14T06:20:44.602Z,8.25
2023-05-14T06:23:10.988Z,7.40
2023-05-14T06:25:37.348Z,10.45
2023-05-14T06:28:03.773Z,8.50
2023-05-14T06:30:30.108Z,8.52
2023-05-14T06:32:56.475Z,7.72
2023-05-14T06:35:23.429Z,7.73
2023-05-14T06:37:49.775Z,7.63
2023-05-14T06:40:16.223Z,8.32
2023-05-14T06:42:42.623Z,8.45
2023-05-14T06:45:09.129Z,8.10
2023-05-14T06:47:35.499Z,10.07
2023-05-14T06:50:02.060Z,8.90
2023-05-14T06:52:28.539Z,7.15
2023-05-14T06:54:54.863Z,10.80
2023-05-14T06:57:21.355Z,7.95
2023-05-14T06:59:47.712Z,6.60
2023-05-14T07:02:14.047Z,9.05
2023-05-14T07:04:40.615Z,7.47
2023-05-14T07:07:07.043Z,7.40
2023-05-14T07:09:33.480Z,6.45
2023-05-14T07:11:59.871Z,6.13
2023-05-14T07:14:26.228Z,8.02
2023-05-14T07:16:52.632Z,7.95
2023-05-14T07:19:19.243Z,7.75
2023-05-14T07:21:45.662Z,9.73
2023-05-14T07:24:12.005Z,8.60
2023-05-14T07:26:38.403Z,8.35
2023-05-14T07:29:04.746Z,7.18
2023-05-14T07:31:31.731Z,7.70
2023-05-14T07:33:58.158Z,6.90
2023-05-14T07:36:24.629Z,5.40
2023-05-14T07:38:50.994Z,5.80
2023-05-14T07:41:17.414Z,6.47
2023-05-14T07:43:43.839Z,5.22
2023-05-14T07:46:10.166Z,4.65
2023-05-14T07:48:36.596Z,6.10
2023-05-14T07:51:03.004Z,6.68
2023-05-14T07:53:29.347Z,6.07
2023-05-14T07:55:55.739Z,6.05
2023-05-14T07:58:22.093Z,6.07
2023-05-14T08:00:48.463Z,4.70
2023-05-14T08:03:15.101Z,5.40
2023-05-14T08:05:41.662Z,2.90
2023-05-14T08:08:08.030Z,5.55
2023-05-14T08:10:36.081Z,5.80
2023-05-14T08:13:02.520Z,5.07
2023-05-14T08:15:28.916Z,5.45
2023-05-14T08:17:55.443Z,5.68
2023-05-14T08:20:22.127Z,4.93
2023-05-14T08:22:48.617Z,5.95
2023-05-14T08:25:14.990Z,4.73
2023-05-14T08:27:41.323Z,5.20
2023-05-14T08:30:07.916Z,6.13
2023-05-14T08:32:34.371Z,5.00
2023-05-14T08:35:00.765Z,4.93
2023-05-14T08:37:27.161Z,5.53
2023-05-14T08:39:53.568Z,5.30
2023-05-14T08:42:21.039Z,5.20
2023-05-14T08:44:53.629Z,5.28
2023-05-14T08:47:21.702Z,3.97
2023-05-14T08:49:52.366Z,5.30
2023-05-14T08:52:20.254Z,4.60
2023-05-14T08:54:48.056Z,4.82
2023-05-14T08:57:14.901Z,5.47
2023-05-14T08:59:41.320Z,5.78
2023-05-14T09:02:09.288Z,5.40
2023-05-14T09:04:36.903Z,4.20
2023-05-14T09:07:03.316Z,4.95
2023-05-14T09:09:29.850Z,4.43
2023-05-14T09:11:56.252Z,6.07
2023-05-14T09:14:22.756Z,5.53
2023-05-14T09:16:50.127Z,5.38
2023-05-14T09:19:17.687Z,5.55
2023-05-14T09:21:47.741Z,17.10
2023-05-14T09:24:25.154Z,6.00
2023-05-14T09:26:55.781Z,3.90
2023-05-14T09:29:24.174Z,3.67
2023-05-14T09:31:50.958Z,4.45
2023-05-14T09:34:24.939Z,3.67
2023-05-14T09:36:55.803Z,5.10
2023-05-14T09:39:22.798Z,4.87
2023-05-14T09:41:49.150Z,5.00
2023-05-14T09:44:15.504Z,5.53
2023-05-14T09:46:41.902Z,4.78
2023-05-14T09:49:08.249Z,4.65
2023-05-14T09:51:34.619Z,4.43
2023-05-14T09:54:01.040Z,4.93
2023-05-14T09:56:27.390Z,4.22
2023-05-14T09:58:53.764Z,3.85
2023-05-14T10:01:20.287Z,3.55
2023-05-14T10:03:47.045Z,3.00
2023-05-14T10:06:16.338Z,3.70
2023-05-14T10:08:44.135Z,3.75
2023-05-14T10:11:14.184Z,4.38
2023-05-14T10:13:42.096Z,3.17
2023-05-14T10:16:11.218Z,3.00
2023-05-14T10:18:42.908Z,4.07
2023-05-14T10:21:10.346Z,2.95
2023-05-14T10:23:37.413Z,3.20
2023-05-14T10:26:04.515Z,3.83
2023-05-14T10:28:31.732Z,2.73
2023-05-14T10:30:59.547Z,4.20
2023-05-14T10:33:26.157Z,3.75
2023-05-14T10:35:55.579Z,4.72
2023-05-14T10:38:22.816Z,4.80
2023-05-14T10:40:50.699Z,3.83
2023-05-14T10:43:18.772Z,3.55
2023-05-14T10:45:45.597Z,3.30
2023-05-14T10:48:12.076Z,3.53
2023-05-14T10:50:38.544Z,3.67
2023-05-14T10:53:04.923Z,4.30
2023-05-14T10:55:31.306Z,3.20
2023-05-14T10:57:58.818Z,2.88
2023-05-14T11:00:25.746Z,3.70
2023-05-14T11:02:55.974Z,3.22
2023-05-14T11:05:22.544Z,2.97
2023-05-14T11:07:49.612Z,4.55
2023-05-14T11:10:16.491Z,3.88
2023-05-14T11:12:50.128Z,4.60
2023-05-14T11:15:18.480Z,3.88
2023-05-14T11:17:46.012Z,4.30
2023-05-14T11:20:12.739Z,3.63
2023-05-14T11:22:39.902Z,3.80
2023-05-14T11:25:06.629Z,4.32
2023-05-14T11:27:36.587Z,3.53
2023-05-14T11:30:03.313Z,3.60
2023-05-14T11:32:34.895Z,4.07
2023-05-14T11:35:01.286Z,3.13
2023-05-14T11:37:27.675Z,2.58
2023-05-14T11:39:55.291Z,4.43
2023-05-14T11:42:21.939Z,3.43
2023-05-14T11:44:49.390Z,3.13
2023-05-14T11:47:16.763Z,3.20
2023-05-14T11:49:43.115Z,2.72
2023-05-14T11:52:10.068Z,2.72
2023-05-14T11:54:36.403Z,2.93
2023-05-14T11:57:07.276Z,3.35
2023-05-14T11:59:33.848Z,3.40
2023-05-14T12:02:00.297Z,3.65
2023-05-14T12:04:26.924Z,4.28
2023-05-14T12:06:53.660Z,3.77
2023-05-14T12:09:20.734Z,3.38
2023-05-14T12:11:47.401Z,3.00
2023-05-14T12:14:21.048Z,3.17
2023-05-14T12:16:47.702Z,2.85
2023-05-14T12:19:15.047Z,2.73
2023-05-14T12:21:43.648Z,2.90
2023-05-14T12:24:11.678Z,3.03
2023-05-14T12:26:38.129Z,2.80
2023-05-14T12:29:05.291Z,2.80
2023-05-14T12:31:32.431Z,2.97
2023-05-14T12:33:59.047Z,3.58
2023-05-14T12:36:25.696Z,2.85
2023-05-14T12:38:58.270Z,2.60
2023-05-14T12:41:24.601Z,2.90
2023-05-14T12:43:50.968Z,2.60
2023-05-14T12:46:17.371Z,2.78
2023-05-14T12:48:43.737Z,2.75
2023-05-14T12:51:10.648Z,2.53
2023-05-14T12:53:36.998Z,2.60
2023-05-14T12:56:03.383Z,2.80
2023-05-14T12:58:29.760Z,2.80
2023-05-14T13:00:56.097Z,2.45
2023-05-14T13:03:22.806Z,2.70
2023-05-14T13:05:51.693Z,2.58
2023-05-14T13:08:18.377Z,2.30
2023-05-14T13:10:44.732Z,2.70
2023-05-14T13:13:11.782Z,2.33
2023-05-14T13:15:38.149Z,2.70
2023-05-14T13:18:04.762Z,2.75
2023-05-14T13:20:31.258Z,2.80
2023-05-14T13:22:57.616Z,2.92
2023-05-14T13:25:24.160Z,3.10
2023-05-14T13:27:50.624Z,1.90
2023-05-14T13:30:17.716Z,2.20
2023-05-14T13:32:44.209Z,2.83
2023-05-14T13:35:11.759Z,3.22
2023-05-14T13:37:38.228Z,2.47
2023-05-14T13:40:04.957Z,2.10
2023-05-14T13:42:31.378Z,2.15
2023-05-14T13:44:58.691Z,2.57
2023-05-14T13:47:25.304Z,3.70
2023-05-14T13:49:52.849Z,4.13
2023-05-14T13:52:19.364Z,2.85
2023-05-14T13:54:45.876Z,2.53
2023-05-14T13:57:12.531Z,2.70
2023-05-14T13:59:38.956Z,2.83
2023-05-14T14:02:05.754Z,3.05
2023-05-14T14:04:32.818Z,2.40
2023-05-14T14:06:59.255Z,2.28
2023-05-14T14:09:25.906Z,3.07
2023-05-14T14:11:52.477Z,1.95
2023-05-14T14:14:18.854Z,3.20
2023-05-14T14:16:45.269Z,3.25
2023-05-14T14:19:11.748Z,3.05
2023-05-14T14:21:38.186Z,2.07
2023-05-14T14:24:04.720Z,2.40
2023-05-14T14:26:31.123Z,2.20
2023-05-14T14:28:57.694Z,2.13
2023-05-14T14:31:24.197Z,3.45
2023-05-14T14:33:50.969Z,2.17
2023-05-14T14:36:17.321Z,2.08
2023-05-14T14:38:43.675Z,2.65
2023-05-14T14:41:10.110Z,1.92
2023-05-14T14:43:37.463Z,2.20
2023-05-14T14:46:03.862Z,3.33
2023-05-14T14:48:31.475Z,1.90
2023-05-14T14:50:58.148Z,2.03
2023-05-14T14:53:24.545Z,1.67
2023-05-14T14:55:51.075Z,1.80
2023-05-14T14:58:18.212Z,1.30
2023-05-14T15:00:44.637Z,1.60
2023-05-14T15:03:11.395Z,1.92
2023-05-14T15:05:38.196Z,2.13
2023-05-14T15:08:04.728Z,1.58
2023-05-14T15:10:31.477Z,2.67
2023-05-14T15:12:58.555Z,2.20
2023-05-14T15:15:27.923Z,1.88
2023-05-14T15:17:54.404Z,1.60
2023-05-14T15:20:20.768Z,1.90
2023-05-14T15:22:47.139Z,2.03
2023-05-14T15:25:13.548Z,1.88
2023-05-14T15:27:39.885Z,1.63
2023-05-14T15:30:06.627Z,2.13
2023-05-14T15:32:33.585Z,2.03
2023-05-14T15:34:59.928Z,2.40
2023-05-14T15:37:26.282Z,2.15
2023-05-14T15:39:52.669Z,1.85
2023-05-14T15:42:19.836Z,1.92
2023-05-14T15:44:46.176Z,2.20
2023-05-14T15:47:12.569Z,1.67
2023-05-14T15:49:38.900Z,1.83
2023-05-14T15:52:05.362Z,2.03
2023-05-14T15:54:31.755Z,1.77
2023-05-14T15:56:58.096Z,1.60
2023-05-14T15:59:24.452Z,1.73
2023-05-14T16:01:51.088Z,2.00
2023-05-14T16:04:17.498Z,1.58
2023-05-14T16:06:43.845Z,1.30
2023-05-14T16:09:10.271Z,1.27
2023-05-14T16:11:36.626Z,2.37
2023-05-14T16:14:02.981Z,2.20
2023-05-14T16:16:29.388Z,2.08
2023-05-14T16:18:55.769Z,1.67
2023-05-14T16:21:22.155Z,1.90
2023-05-14T16:23:48.659Z,1.50
2023-05-14T16:26:15.059Z,1.98
2023-05-14T16:28:41.416Z,1.90
2023-05-14T16:31:07.794Z,2.13
2023-05-14T16:33:34.131Z,2.92
2023-05-14T16:36:00.519Z,2.37
2023-05-14T16:38:26.898Z,2.70
2023-05-14T16:40:53.221Z,2.63
2023-05-14T16:43:19.563Z,2.50
2023-05-14T16:45:46.192Z,2.13
2023-05-14T16:48:12.675Z,2.17
2023-05-14T16:50:39.074Z,3.00
2023-05-14T16:53:05.599Z,4.25
2023-05-14T16:55:31.943Z,4.45
2023-05-14T16:57:58.283Z,4.75
2023-05-14T17:00:24.772Z,3.87
2023-05-14T17:02:51.319Z,3.45
2023-05-14T17:05:17.894Z,3.13
2023-05-14T17:07:44.350Z,2.30
2023-05-14T17:10:10.828Z,2.50
2023-05-14T17:12:37.182Z,2.57
2023-05-14T17:15:05.601Z,1.90
2023-05-14T17:17:32.208Z,1.80
2023-05-14T17:19:58.548Z,2.53
2023-05-14T17:22:25.021Z,2.40
2023-05-14T17:24:51.444Z,2.30
2023-05-14T17:27:17.804Z,1.67
2023-05-14T17:29:44.153Z,1.63
2023-05-14T17:32:10.526Z,2.45
2023-05-14T17:34:36.908Z,2.08
2023-05-14T17:37:03.340Z,2.10
2023-05-14T17:39:29.679Z,1.63
2023-05-14T17:41:56.011Z,2.08
2023-05-14T17:44:22.437Z,2.65
2023-05-14T17:46:48.819Z,2.00
2023-05-14T17:49:15.182Z,2.03
2023-05-14T17:51:41.596Z,1.50
2023-05-14T17:54:07.971Z,1.73
2023-05-14T17:56:34.353Z,1.73
2023-05-14T17:59:00.816Z,1.50
2023-05-14T18:01:27.271Z,1.53
2023-05-14T18:03:55.597Z,1.70
2023-05-14T18:06:22.005Z,1.50
2023-05-14T18:08:48.378Z,1.77
2023-05-14T18:11:15.436Z,1.83
2023-05-14T18:13:41.784Z,1.83
2023-05-14T18:16:08.249Z,1.80
2023-05-14T18:18:34.883Z,1.30
2023-05-14T18:21:01.291Z,1.30
2023-05-14T18:23:27.637Z,1.60
2023-05-14T18:25:54.444Z,1.00
2023-05-14T18:28:20.815Z,1.88
2023-05-14T18:30:47.339Z,1.50
2023-05-14T18:33:13.847Z,2.22
2023-05-14T18:35:41.592Z,1.63
2023-05-14T18:38:08.023Z,1.63
2023-05-14T18:40:34.424Z,1.80
2023-05-14T18:43:00.769Z,1.80
2023-05-14T18:45:27.172Z,2.42
2023-05-14T18:47:53.664Z,2.60
2023-05-14T18:50:20.058Z,3.20
2023-05-14T18:52:46.420Z,2.58
2023-05-14T18:55:12.823Z,3.28
2023-05-14T18:57:39.205Z,2.60
2023-05-14T19:00:06.002Z,2.10
2023-05-14T19:02:33.610Z,2.37
2023-05-14T19:05:00.234Z,2.55
2023-05-14T19:07:26.627Z,2.00
2023-05-14T19:09:53.066Z,1.80
2023-05-14T19:12:19.425Z,1.52
2023-05-14T19:14:45.776Z,1.83
2023-05-14T19:17:12.509Z,1.42
2023-05-14T19:19:38.848Z,1.60
2023-05-14T19:22:05.461Z,1.83
2023-05-14T19:24:31.947Z,1.60
2023-05-14T19:26:58.271Z,1.80
2023-05-14T19:29:24.607Z,1.48
2023-05-14T19:31:51.050Z,1.80
2023-05-14T19:34:17.423Z,1.63
2023-05-14T19:36:43.800Z,1.50
2023-05-14T19:39:10.329Z,1.87
2023-05-14T19:41:36.662Z,1.50
2023-05-14T19:44:03.011Z,1.88
2023-05-14T19:46:29.539Z,1.60
2023-05-14T19:48:55.904Z,1.95
2023-05-14T19:51:22.268Z,1.70
2023-05-14T19:53:48.659Z,1.52
2023-05-14T19:56:15.043Z,2.40
2023-05-14T19:58:41.452Z,1.60
2023-05-14T20:01:07.881Z,2.10
2023-05-14T20:03:34.257Z,1.80
2023-05-14T20:06:00.847Z,2.00
2023-05-14T20:08:27.318Z,2.05
2023-05-14T20:10:53.648Z,2.17
2023-05-14T20:13:20.000Z,2.17
2023-05-14T20:15:46.401Z,1.80
2023-05-14T20:18:12.828Z,2.58
2023-05-14T20:20:39.187Z,2.13
2023-05-14T20:23:05.792Z,2.03
2023-05-14T20:25:32.481Z,2.15
2023-05-14T20:27:59.027Z,2.20
2023-05-14T20:30:25.782Z,2.72
2023-05-14T20:32:52.273Z,3.55
2023-05-14T20:35:18.626Z,2.38
2023-05-14T20:37:45.129Z,2.70
2023-05-14T20:40:11.700Z,2.50
2023-05-14T20:42:38.550Z,2.08
2023-05-14T20:45:05.236Z,2.95
2023-05-14T20:47:31.686Z,2.83
2023-05-14T20:49:58.044Z,2.10
2023-05-14T20:52:24.494Z,2.03
2023-05-14T20:54:50.868Z,2.63
2023-05-14T20:57:18.170Z,2.55
2023-05-14T20:59:45.281Z,3.30
2023-05-14T21:02:12.130Z,3.17
2023-05-14T21:04:39.043Z,2.67
2023-05-14T21:07:07.116Z,3.38
2023-05-14T21:09:33.480Z,2.95
2023-05-14T21:11:59.838Z,2.63
2023-05-14T21:14:26.263Z,1.90
2023-05-14T21:16:52.729Z,2.75
2023-05-14T21:19:19.225Z,2.90
2023-05-14T21:21:45.677Z,3.53
2023-05-14T21:24:11.995Z,2.92
2023-05-14T21:26:38.317Z,1.85
2023-05-14T21:29:04.750Z,2.53
2023-05-14T21:31:31.150Z,2.75
2023-05-14T21:33:57.535Z,2.00
2023-05-14T21:36:24.029Z,2.33
2023-05-14T21:38:51.056Z,2.95
2023-05-14T21:41:17.446Z,2.08
2023-05-14T21:43:43.879Z,2.60
2023-05-14T21:46:10.227Z,3.40
2023-05-14T21:48:36.659Z,2.30
2023-05-14T21:51:03.196Z,1.77
2023-05-14T21:53:29.553Z,2.90
2023-05-14T21:55:56.116Z,2.28
2023-05-14T21:58:22.540Z,2.35
2023-05-14T22:00:48.894Z,3.03
2023-05-14T22:03:15.349Z,3.20
2023-05-14T22:05:41.894Z,2.60
2023-05-14T22:08:08.233Z,3.03
2023-05-14T22:10:34.908Z,3.92
2023-05-14T22:13:01.280Z,2.67
2023-05-14T22:15:27.634Z,3.45
2023-05-14T22:17:54.029Z,3.20
2023-05-14T22:20:20.434Z,3.00
2023-05-14T22:22:46.783Z,3.25
2023-05-14T22:25:13.110Z,2.80
2023-05-14T22:27:39.561Z,3.10
2023-05-14T22:30:06.363Z,2.70
2023-05-14T22:32:32.724Z,2.90
2023-05-14T22:34:59.120Z,2.85
2023-05-14T22:37:25.475Z,3.45
2023-05-14T22:39:51.831Z,3.83
2023-05-14T22:42:18.219Z,3.38
2023-05-14T22:44:44.577Z,3.53
2023-05-14T22:47:10.952Z,3.30
2023-05-14T22:49:37.365Z,3.28
2023-05-14T22:52:03.865Z,2.90
2023-05-14T22:54:30.176Z,3.40
2023-05-14T22:56:56.610Z,2.33
2023-05-14T22:59:23.920Z,3.15
2023-05-14T23:01:50.528Z,2.90
2023-05-14T23:04:17.179Z,2.85
2023-05-14T23:06:43.770Z,3.40
2023-05-14T23:09:10.124Z,2.90
2023-05-14T23:11:36.515Z,2.90
2023-05-14T23:14:02.968Z,2.90
2023-05-14T23:16:29.331Z,2.67
2023-05-14T23:18:55.767Z,2.95
2023-05-14T23:21:22.143Z,2.60
2023-05-14T23:23:48.511Z,2.92
2023-05-14T23:26:14.989Z,2.63
2023-05-14T23:28:41.336Z,3.20
2023-05-14T23:31:07.703Z,2.55
2023-05-14T23:33:34.084Z,2.75
2023-05-14T23:36:00.592Z,2.20
2023-05-14T23:38:26.999Z,2.60
2023-05-14T23:40:53.382Z,2.78
2023-05-14T23:43:19.714Z,2.45
2023-05-14T23:45:46.090Z,2.60
2023-05-14T23:48:12.472Z,2.33
2023-05-14T23:50:38.956Z,2.90
2023-05-14T23:53:05.540Z,2.88
2023-05-14T23:55:31.941Z,2.60
2023-05-14T23:57:58.330Z,2.35
